Michael & Kristen — WBA4573 — position and weather

sailwx.info

Track history (hours):
 
Tides and Currents Weather Stations Pressure Air Temp Water Temp Dewpoint Dewpoint Depression Visibility Wind Speed Wind Dir Waves Ship Positions

Michael & Kristen

Owner: RAYMOND, CHARLES E, BEVERLY, MA. More information available from US FCC via Universal Licensing System and Coast Guard Vessel Documentation Center.

Last reported at 2017-Nov-12 19:07 UTC. Time now 2017-Nov-25 01:59 UTC.
Position N 42°20' W 070°06'.
Warning: this ship's position is 12 days out of date.

Length 23 m; draft 2 m.

Type: Fishing. MMSI: 367138530.

Date/timePositionNaut miles runAvg speedWind from/ knotsBaromVisibWave heightAir tempDewpointWater temp
2017-Nov-12 19:07N 42°20' W 070°06'1 8.6
2017-Nov-12 18:58N 42°21' W 070°08'4 8.5
2017-Nov-12 18:31N 42°23' W 070°12'4 8.7
2017-Nov-12 18:00N 42°25' W 070°17'4 8.8
2017-Nov-12 17:31N 42°27' W 070°23'4 9.0
2017-Nov-12 17:01N 42°29' W 070°28'5 9.0
2017-Nov-12 16:30N 42°32' W 070°33'5 9.0
2017-Nov-12 16:00N 42°34' W 070°38'3 6.0
2017-Nov-12 15:30N 42°37' W 070°39'  
2017-Nov-08 18:56N 42°37' W 070°39'3 6.1
2017-Nov-08 18:30N 42°34' W 070°40'4 8.7
2017-Nov-08 18:01N 42°32' W 070°35'4 8.5
2017-Nov-08 17:30N 42°29' W 070°30'4 8.6
2017-Nov-08 17:00N 42°27' W 070°25'4 8.7
2017-Nov-08 16:30N 42°25' W 070°21'  
Track history (hours):
 
Tides and Currents Weather Stations Pressure Air Temp Water Temp Dewpoint Dewpoint Depression Visibility Wind Speed Wind Dir Waves Ship Positions

Michael & Kristen

Owner: RAYMOND, CHARLES E, BEVERLY, MA. More information available from US FCC via Universal Licensing System and Coast Guard Vessel Documentation Center.

Last reported at 2017-Nov-12 19:07 UTC. Time now 2017-Nov-25 01:59 UTC.
Position N 42°20' W 070°06'.
Warning: this ship's position is 12 days out of date.

Length 23 m; draft 2 m.

Type: Fishing. MMSI: 367138530.

Date/timePositionNaut miles runAvg speedWind from/ knotsBaromVisibWave heightAir tempDewpointWater temp
2017-Nov-12 19:07N 42°20' W 070°06'1 8.6
2017-Nov-12 18:58N 42°21' W 070°08'4 8.5
2017-Nov-12 18:31N 42°23' W 070°12'4 8.7
2017-Nov-12 18:00N 42°25' W 070°17'4 8.8
2017-Nov-12 17:31N 42°27' W 070°23'4 9.0
2017-Nov-12 17:01N 42°29' W 070°28'5 9.0
2017-Nov-12 16:30N 42°32' W 070°33'5 9.0
2017-Nov-12 16:00N 42°34' W 070°38'3 6.0
2017-Nov-12 15:30N 42°37' W 070°39'  
2017-Nov-08 18:56N 42°37' W 070°39'3 6.1
2017-Nov-08 18:30N 42°34' W 070°40'4 8.7
2017-Nov-08 18:01N 42°32' W 070°35'4 8.5
2017-Nov-08 17:30N 42°29' W 070°30'4 8.6
2017-Nov-08 17:00N 42°27' W 070°25'4 8.7
2017-Nov-08 16:30N 42°25' W 070°21'  

Dump ship's entire track history